createdAt,value
2017-11-26T00:01:41.457Z,15.35
2017-11-26T00:04:09.810Z,14.40
2017-11-26T00:06:38.151Z,14.70
2017-11-26T00:09:06.524Z,13.23
2017-11-26T00:11:34.888Z,13.85
2017-11-26T00:14:03.282Z,16.12
2017-11-26T00:16:31.636Z,13.32
2017-11-26T00:18:59.976Z,14.02
2017-11-26T00:21:28.320Z,16.00
2017-11-26T00:23:56.667Z,13.82
2017-11-26T00:26:25.046Z,14.95
2017-11-26T00:28:53.392Z,11.73
2017-11-26T00:31:21.737Z,11.23
2017-11-26T00:33:50.093Z,10.85
2017-11-26T00:36:18.489Z,11.93
2017-11-26T00:38:46.891Z,12.80
2017-11-26T00:41:15.246Z,11.88
2017-11-26T00:43:43.644Z,12.45
2017-11-26T00:46:11.983Z,12.45
2017-11-26T00:48:40.360Z,9.95
2017-11-26T00:51:08.711Z,11.60
2017-11-26T00:53:37.087Z,13.93
2017-11-26T00:56:05.441Z,11.93
2017-11-26T00:58:34.037Z,10.07
2017-11-26T01:01:02.380Z,9.82
2017-11-26T01:03:30.725Z,11.80
2017-11-26T01:05:59.072Z,13.90
2017-11-26T01:08:27.432Z,13.75
2017-11-26T01:10:55.808Z,10.40
2017-11-26T01:13:24.147Z,11.50
2017-11-26T01:15:52.497Z,10.38
2017-11-26T01:18:20.877Z,10.68
2017-11-26T01:20:49.220Z,9.95
2017-11-26T01:23:17.567Z,11.05
2017-11-26T01:25:45.923Z,10.43
2017-11-26T01:28:14.272Z,11.35
2017-11-26T01:30:42.649Z,10.75
2017-11-26T01:33:10.991Z,12.75
2017-11-26T01:35:39.344Z,13.43
2017-11-26T01:38:07.687Z,11.68
2017-11-26T01:40:36.032Z,12.10
2017-11-26T01:43:04.505Z,14.15
2017-11-26T01:45:32.853Z,12.05
2017-11-26T01:48:01.208Z,12.60
2017-11-26T01:50:29.563Z,12.70
2017-11-26T01:52:57.915Z,11.77
2017-11-26T01:55:26.299Z,11.52
2017-11-26T01:57:54.648Z,11.00
2017-11-26T02:00:23.025Z,10.82
2017-11-26T02:02:51.375Z,11.57
2017-11-26T02:05:19.750Z,13.30
2017-11-26T02:07:48.102Z,11.35
2017-11-26T02:10:16.460Z,10.60
2017-11-26T02:12:44.813Z,10.45
2017-11-26T02:15:13.165Z,11.10
2017-11-26T02:17:41.554Z,10.43
2017-11-26T02:20:09.921Z,10.32
2017-11-26T02:22:38.265Z,10.60
2017-11-26T02:25:06.618Z,11.05
2017-11-26T02:27:34.964Z,10.90
2017-11-26T02:30:03.450Z,10.40
2017-11-26T02:32:43.472Z,11.48
2017-11-26T02:35:23.595Z,10.95
2017-11-26T02:37:51.941Z,12.93
2017-11-26T02:40:20.292Z,14.00
2017-11-26T02:42:48.639Z,12.98
2017-11-26T02:45:17.009Z,11.82
2017-11-26T02:47:45.370Z,11.63
2017-11-26T02:50:13.726Z,13.15
2017-11-26T02:52:42.068Z,13.30
2017-11-26T02:55:10.414Z,12.30
2017-11-26T02:57:38.798Z,13.82
2017-11-26T03:00:07.148Z,13.80
2017-11-26T03:02:35.500Z,13.55
2017-11-26T03:05:03.851Z,13.77
2017-11-26T03:07:32.195Z,15.18
2017-11-26T03:10:00.549Z,13.85
2017-11-26T03:12:29.251Z,12.95
2017-11-26T03:14:57.640Z,14.65
2017-11-26T03:17:25.984Z,14.05
2017-11-26T03:19:54.331Z,12.40
2017-11-26T03:22:22.680Z,13.82
2017-11-26T03:24:51.024Z,12.98
2017-11-26T03:27:19.408Z,12.93
2017-11-26T03:29:47.756Z,12.88
2017-11-26T03:32:16.107Z,13.65
2017-11-26T03:34:44.482Z,14.18
2017-11-26T03:37:12.826Z,13.30
2017-11-26T03:39:41.202Z,14.15
2017-11-26T03:42:09.536Z,13.02
2017-11-26T03:44:37.890Z,15.30
2017-11-26T03:47:06.255Z,14.32
2017-11-26T03:49:34.624Z,13.07
2017-11-26T03:52:03.000Z,13.62
2017-11-26T03:54:31.358Z,14.57
2017-11-26T03:56:59.708Z,12.32
2017-11-26T03:59:28.089Z,13.25
2017-11-26T04:01:56.435Z,11.60
2017-11-26T04:04:24.781Z,12.45
2017-11-26T04:06:53.167Z,12.40
2017-11-26T04:09:21.514Z,12.77
2017-11-26T04:11:49.879Z,12.73
2017-11-26T04:14:18.233Z,10.80
2017-11-26T04:16:46.585Z,11.82
2017-11-26T04:19:14.969Z,10.52
2017-11-26T04:21:43.323Z,11.65
2017-11-26T04:24:11.680Z,11.90
2017-11-26T04:26:40.024Z,11.05
2017-11-26T04:29:08.368Z,9.35
2017-11-26T04:31:36.789Z,7.90
2017-11-26T04:34:05.124Z,8.18
2017-11-26T04:36:33.463Z,6.50
2017-11-26T04:39:01.801Z,7.80
2017-11-26T04:41:30.156Z,8.23
2017-11-26T04:43:58.552Z,9.52
2017-11-26T04:46:26.932Z,9.35
2017-11-26T04:48:55.281Z,9.13
2017-11-26T04:51:23.622Z,9.95
2017-11-26T04:53:51.969Z,9.55
2017-11-26T04:56:20.327Z,9.10
2017-11-26T05:01:22.143Z,7.87
2017-11-26T05:03:50.490Z,9.40
2017-11-26T05:06:18.840Z,7.20
2017-11-26T05:08:47.191Z,9.38
2017-11-26T05:11:15.555Z,8.63
2017-11-26T05:13:44.029Z,8.38
2017-11-26T05:16:12.365Z,8.35
2017-11-26T05:18:40.708Z,10.00
2017-11-26T05:21:09.064Z,9.07
2017-11-26T05:23:37.407Z,10.18
2017-11-26T05:26:05.783Z,9.80
2017-11-26T05:28:34.128Z,8.50
2017-11-26T05:31:02.475Z,8.65
2017-11-26T05:33:30.844Z,9.07
2017-11-26T05:35:59.178Z,9.57
2017-11-26T05:38:27.556Z,9.05
2017-11-26T05:40:55.903Z,10.02
2017-11-26T05:43:24.248Z,8.95
2017-11-26T05:45:52.590Z,10.07
2017-11-26T05:48:20.927Z,9.60
2017-11-26T05:50:49.405Z,10.88
2017-11-26T05:53:17.751Z,18.65
2017-11-26T05:55:46.100Z,15.65
2017-11-26T05:58:14.447Z,10.93
2017-11-26T06:00:42.796Z,9.95
2017-11-26T06:03:11.163Z,12.10
2017-11-26T06:05:39.509Z,15.15
2017-11-26T06:08:07.851Z,12.18
2017-11-26T06:10:36.200Z,10.70
2017-11-26T06:13:04.540Z,11.00
2017-11-26T06:15:32.914Z,11.00
2017-11-26T06:18:01.260Z,11.38
2017-11-26T06:20:29.607Z,11.80
2017-11-26T06:22:57.987Z,11.23
2017-11-26T06:25:26.331Z,9.60
2017-11-26T06:27:54.685Z,10.00
2017-11-26T06:30:23.059Z,10.02
2017-11-26T06:32:51.396Z,8.85
2017-11-26T06:35:19.762Z,9.98
2017-11-26T06:37:48.103Z,10.00
2017-11-26T06:40:16.453Z,8.60
2017-11-26T06:42:44.836Z,9.60
2017-11-26T06:45:13.184Z,10.35
2017-11-26T06:47:41.524Z,9.35
2017-11-26T06:50:09.872Z,9.50
2017-11-26T06:52:38.264Z,9.27
2017-11-26T06:55:06.636Z,10.40
2017-11-26T06:57:34.980Z,8.63
2017-11-26T07:00:03.329Z,8.35
2017-11-26T07:02:31.662Z,7.75
2017-11-26T07:05:00.000Z,9.43
2017-11-26T07:07:28.381Z,9.63
2017-11-26T07:09:56.733Z,8.93
2017-11-26T07:12:25.198Z,8.68
2017-11-26T07:14:53.539Z,10.23
2017-11-26T07:17:21.884Z,9.23
2017-11-26T07:19:50.232Z,8.95
2017-11-26T07:22:18.585Z,9.27
2017-11-26T07:24:46.955Z,9.45
2017-11-26T07:27:15.302Z,8.10
2017-11-26T07:29:43.647Z,10.60
2017-11-26T07:32:11.996Z,8.95
2017-11-26T07:34:40.393Z,8.02
2017-11-26T07:37:08.754Z,9.98
2017-11-26T07:39:37.100Z,8.57
2017-11-26T07:42:05.438Z,9.73
2017-11-26T07:44:33.787Z,10.80
2017-11-26T07:47:02.161Z,10.00
2017-11-26T07:49:30.506Z,12.40
2017-11-26T07:51:58.873Z,11.88
2017-11-26T07:54:27.229Z,10.98
2017-11-26T07:56:55.595Z,9.68
2017-11-26T07:59:23.967Z,9.90
2017-11-26T08:01:52.305Z,9.65
2017-11-26T08:04:20.643Z,10.02
2017-11-26T08:06:49.016Z,9.18
2017-11-26T08:09:17.356Z,8.75
2017-11-26T08:11:45.704Z,8.82
2017-11-26T08:14:14.049Z,8.60
2017-11-26T08:16:42.391Z,9.75
2017-11-26T08:19:10.756Z,8.85
2017-11-26T08:21:39.133Z,11.00
2017-11-26T08:24:07.474Z,8.70
2017-11-26T08:26:35.857Z,10.55
2017-11-26T08:29:04.218Z,10.55
2017-11-26T08:31:32.587Z,11.63
2017-11-26T08:34:00.941Z,8.35
2017-11-26T08:36:29.284Z,9.05
2017-11-26T08:38:57.661Z,9.73
2017-11-26T08:41:26.017Z,9.52
2017-11-26T08:43:54.371Z,10.10
2017-11-26T08:46:22.721Z,10.32
2017-11-26T08:48:51.068Z,9.70
2017-11-26T08:51:19.501Z,10.75
2017-11-26T08:53:47.849Z,9.73
2017-11-26T08:56:16.189Z,9.77
2017-11-26T08:58:44.664Z,11.48
2017-11-26T09:01:13.011Z,10.23
2017-11-26T09:03:41.369Z,10.02
2017-11-26T09:06:09.750Z,12.25
2017-11-26T09:08:38.569Z,11.00
2017-11-26T09:11:06.955Z,9.55
2017-11-26T09:13:35.309Z,10.13
2017-11-26T09:16:03.651Z,9.30
2017-11-26T09:18:31.993Z,9.68
2017-11-26T09:21:00.343Z,9.00
2017-11-26T09:23:28.814Z,9.68
2017-11-26T09:25:57.153Z,8.90
2017-11-26T09:28:25.495Z,8.00
2017-11-26T09:30:53.850Z,8.80
2017-11-26T09:33:22.192Z,9.07
2017-11-26T09:35:50.578Z,9.25
2017-11-26T09:38:18.925Z,7.78
2017-11-26T09:40:47.265Z,7.32
2017-11-26T09:43:15.608Z,5.75
2017-11-26T09:45:43.948Z,6.40
2017-11-26T09:48:12.334Z,4.78
2017-11-26T09:50:40.680Z,4.43
2017-11-26T09:53:09.057Z,5.20
2017-11-26T09:55:37.412Z,5.55
2017-11-26T09:58:05.763Z,5.85
2017-11-26T10:00:34.131Z,5.12
2017-11-26T10:03:02.476Z,4.90
2017-11-26T10:05:30.821Z,4.90
2017-11-26T10:07:59.161Z,5.05
2017-11-26T10:10:27.501Z,4.30
2017-11-26T10:12:55.888Z,4.28
2017-11-26T10:15:24.228Z,3.37
2017-11-26T10:17:52.579Z,3.78
2017-11-26T10:20:20.951Z,2.70
2017-11-26T10:22:49.282Z,3.70
2017-11-26T10:25:17.616Z,3.28
2017-11-26T10:27:45.952Z,3.60
2017-11-26T10:30:14.296Z,3.25
2017-11-26T10:32:42.664Z,2.70
2017-11-26T10:35:11.005Z,3.40
2017-11-26T10:37:39.346Z,5.93
2017-11-26T10:40:07.721Z,3.25
2017-11-26T10:42:36.066Z,4.43
2017-11-26T10:45:04.532Z,4.37
2017-11-26T10:47:32.880Z,3.85
2017-11-26T10:50:01.224Z,4.60
2017-11-26T10:52:29.572Z,4.20
2017-11-26T10:54:57.920Z,4.60
2017-11-26T10:57:26.291Z,4.37
2017-11-26T10:59:54.635Z,5.10
2017-11-26T11:02:22.977Z,4.72
2017-11-26T11:04:51.311Z,4.20
2017-11-26T11:07:19.657Z,4.00
2017-11-26T11:09:47.998Z,4.10
2017-11-26T11:12:16.377Z,5.70
2017-11-26T11:14:44.723Z,4.62
2017-11-26T11:17:13.061Z,3.97
2017-11-26T11:19:41.399Z,4.03
2017-11-26T11:22:09.763Z,4.00
2017-11-26T11:24:38.137Z,3.92
2017-11-26T11:27:06.480Z,5.25
2017-11-26T11:29:34.812Z,5.03
2017-11-26T11:32:03.151Z,5.07
2017-11-26T11:34:31.518Z,6.45
2017-11-26T11:36:59.885Z,4.25
2017-11-26T11:39:28.226Z,3.97
2017-11-26T11:41:56.564Z,3.85
2017-11-26T11:44:24.948Z,3.55
2017-11-26T11:46:53.292Z,3.50
2017-11-26T11:49:21.632Z,3.83
2017-11-26T11:51:49.972Z,3.47
2017-11-26T11:54:18.315Z,3.60
2017-11-26T11:56:46.732Z,3.30
2017-11-26T11:59:15.075Z,3.40
2017-11-26T12:01:43.412Z,4.00
2017-11-26T12:04:11.803Z,3.50
2017-11-26T12:06:40.143Z,4.22
2017-11-26T12:09:08.534Z,3.60
2017-11-26T12:11:36.869Z,4.00
2017-11-26T12:14:05.201Z,4.60
2017-11-26T12:16:33.544Z,3.40
2017-11-26T12:19:01.888Z,3.70
2017-11-26T12:21:30.292Z,3.80
2017-11-26T12:23:58.656Z,3.83
2017-11-26T12:26:26.989Z,3.20
2017-11-26T12:28:55.356Z,2.90
2017-11-26T12:31:23.726Z,4.10
2017-11-26T12:33:52.092Z,3.67
2017-11-26T12:36:20.432Z,4.43
2017-11-26T12:38:48.785Z,5.20
2017-11-26T12:41:17.118Z,4.10
2017-11-26T12:43:45.467Z,5.12
2017-11-26T12:46:13.846Z,5.12
2017-11-26T12:48:42.176Z,5.57
2017-11-26T12:51:10.533Z,6.10
2017-11-26T12:53:38.886Z,6.75
2017-11-26T12:56:07.239Z,6.03
2017-11-26T12:58:35.599Z,6.30
2017-11-26T13:01:03.964Z,6.97
2017-11-26T13:03:32.302Z,6.30
2017-11-26T13:06:00.640Z,6.05
2017-11-26T13:08:28.975Z,6.32
2017-11-26T13:10:57.355Z,6.70
2017-11-26T13:13:25.714Z,7.57
2017-11-26T13:15:54.069Z,7.12
2017-11-26T13:18:22.404Z,7.32
2017-11-26T13:20:50.789Z,6.90
2017-11-26T13:23:19.173Z,7.32
2017-11-26T13:25:47.521Z,6.65
2017-11-26T13:28:15.859Z,6.90
2017-11-26T13:30:44.213Z,7.25
2017-11-26T13:33:12.556Z,7.43
2017-11-26T13:35:40.928Z,9.48
2017-11-26T13:38:09.294Z,6.55
2017-11-26T13:40:37.652Z,6.82
2017-11-26T13:43:05.995Z,6.75
2017-11-26T13:45:34.351Z,7.60
2017-11-26T13:48:02.755Z,7.68
2017-11-26T13:50:31.101Z,7.00
2017-11-26T13:52:59.482Z,8.85
2017-11-26T13:55:27.825Z,7.05
2017-11-26T13:57:56.193Z,8.30
2017-11-26T14:00:24.553Z,8.75
2017-11-26T14:02:52.925Z,10.30
2017-11-26T14:05:21.293Z,9.70
2017-11-26T14:07:49.652Z,6.97
2017-11-26T14:10:18.019Z,9.70
2017-11-26T14:12:46.380Z,9.30
2017-11-26T14:15:14.730Z,8.15
2017-11-26T14:17:43.092Z,7.35
2017-11-26T14:20:11.436Z,7.72
2017-11-26T14:22:39.786Z,7.68
2017-11-26T14:25:08.130Z,7.82
2017-11-26T14:27:36.729Z,8.02
2017-11-26T14:30:05.063Z,7.85
2017-11-26T14:32:33.408Z,7.65
2017-11-26T14:35:01.781Z,9.48
2017-11-26T14:37:30.126Z,9.32
2017-11-26T14:39:58.496Z,7.35
2017-11-26T14:42:26.841Z,7.68
2017-11-26T14:44:55.823Z,8.18
2017-11-26T14:47:24.204Z,8.93
2017-11-26T14:49:52.577Z,7.60
2017-11-26T14:52:20.917Z,8.52
2017-11-26T14:54:49.272Z,9.15
2017-11-26T14:57:17.620Z,9.18
2017-11-26T14:59:45.972Z,8.52
2017-11-26T15:02:14.317Z,8.77
2017-11-26T15:04:42.665Z,9.55
2017-11-26T15:07:11.006Z,10.88
2017-11-26T15:09:39.390Z,12.45
2017-11-26T15:12:07.735Z,9.20
2017-11-26T15:14:36.097Z,9.02
2017-11-26T15:17:04.451Z,9.45
2017-11-26T15:19:32.795Z,9.90
2017-11-26T15:22:01.189Z,10.50
2017-11-26T15:24:29.551Z,9.82
2017-11-26T15:26:57.902Z,9.88
2017-11-26T15:29:26.277Z,9.45
2017-11-26T15:31:54.615Z,9.65
2017-11-26T15:34:22.964Z,11.00
2017-11-26T15:36:51.351Z,10.57
2017-11-26T15:39:19.705Z,10.52
2017-11-26T15:41:48.052Z,11.68
2017-11-26T15:44:16.436Z,11.48
2017-11-26T15:46:44.800Z,10.70
2017-11-26T15:49:13.155Z,10.80
2017-11-26T15:51:41.540Z,12.57
2017-11-26T15:54:09.891Z,12.18
2017-11-26T15:56:38.251Z,11.12
2017-11-26T15:59:06.629Z,11.70
2017-11-26T16:01:35.353Z,12.57
2017-11-26T16:04:03.734Z,12.50
2017-11-26T16:06:32.059Z,11.43
2017-11-26T16:09:00.412Z,13.88
2017-11-26T16:11:28.789Z,12.05
2017-11-26T16:13:57.143Z,13.25
2017-11-26T16:16:25.493Z,13.68
2017-11-26T16:18:53.836Z,12.45
2017-11-26T16:21:22.184Z,12.90
2017-11-26T16:23:50.575Z,13.60
2017-11-26T16:26:18.920Z,13.50
2017-11-26T16:28:47.276Z,11.90
2017-11-26T16:31:15.640Z,12.20
2017-11-26T16:33:44.005Z,13.27
2017-11-26T16:36:12.395Z,12.65
2017-11-26T16:38:40.743Z,12.75
2017-11-26T16:41:09.155Z,12.30
2017-11-26T16:43:37.795Z,12.23
2017-11-26T16:46:06.263Z,14.10
2017-11-26T16:48:34.648Z,13.40
2017-11-26T16:51:03.010Z,11.35
2017-11-26T16:53:31.401Z,11.70
2017-11-26T16:55:59.765Z,12.32
2017-11-26T16:58:28.124Z,12.95
2017-11-26T17:00:56.509Z,12.37
2017-11-26T17:03:24.871Z,11.43
2017-11-26T17:05:54.167Z,12.35
2017-11-26T17:08:22.569Z,12.52
2017-11-26T17:10:50.921Z,12.55
2017-11-26T17:13:19.580Z,14.70
2017-11-26T17:15:47.933Z,15.95
2017-11-26T17:18:16.281Z,13.98
2017-11-26T17:20:44.634Z,14.65
2017-11-26T17:23:12.984Z,16.20
2017-11-26T17:25:42.608Z,16.20
2017-11-26T17:28:10.969Z,12.75
2017-11-26T17:30:39.459Z,13.43
2017-11-26T17:33:07.815Z,14.48
2017-11-26T17:35:36.180Z,13.00
2017-11-26T17:38:04.559Z,12.20
2017-11-26T17:40:32.931Z,13.02
2017-11-26T17:43:01.324Z,12.23
2017-11-26T17:45:29.759Z,12.70
2017-11-26T17:47:58.967Z,14.68
2017-11-26T17:50:30.289Z,13.98
2017-11-26T17:52:58.689Z,13.90
2017-11-26T17:55:27.072Z,13.70
2017-11-26T17:57:55.472Z,15.00
2017-11-26T18:00:23.832Z,13.82
2017-11-26T18:02:52.189Z,20.60
2017-11-26T18:05:20.602Z,13.82
2017-11-26T18:07:48.966Z,15.30
2017-11-26T18:10:18.974Z,13.43
2017-11-26T18:12:47.332Z,14.93
2017-11-26T18:15:15.690Z,15.13
2017-11-26T18:17:45.821Z,16.08
2017-11-26T18:20:14.170Z,15.65
2017-11-26T18:22:42.528Z,14.80
2017-11-26T18:25:11.008Z,18.73
2017-11-26T18:27:39.389Z,26.65
2017-11-26T18:30:07.794Z,21.85
2017-11-26T18:32:36.310Z,16.00
2017-11-26T18:35:04.675Z,16.50
2017-11-26T18:37:33.020Z,27.65
2017-11-26T18:40:01.403Z,18.90
2017-11-26T18:42:29.804Z,35.30
2017-11-26T18:44:58.172Z,17.95
2017-11-26T18:47:26.550Z,15.52
2017-11-26T18:49:54.899Z,14.87
2017-11-26T18:52:23.243Z,14.25
2017-11-26T18:54:51.637Z,16.30
2017-11-26T18:57:22.056Z,17.58
2017-11-26T18:59:50.399Z,18.20
2017-11-26T19:02:18.755Z,17.55
2017-11-26T19:04:47.104Z,25.88
2017-11-26T19:07:15.496Z,19.23
2017-11-26T19:09:43.856Z,19.55
2017-11-26T19:12:12.222Z,17.40
2017-11-26T19:14:41.241Z,17.60
2017-11-26T19:17:09.590Z,14.50
2017-11-26T19:19:37.946Z,15.10
2017-11-26T19:22:06.313Z,15.20
2017-11-26T19:24:34.671Z,16.48
2017-11-26T19:27:03.092Z,14.87
2017-11-26T19:29:31.472Z,16.20
2017-11-26T19:31:59.825Z,16.35
2017-11-26T19:34:28.176Z,16.33
2017-11-26T19:36:56.579Z,18.05
2017-11-26T19:39:24.928Z,16.35
2017-11-26T19:41:53.358Z,15.55
2017-11-26T19:44:21.767Z,16.00
2017-11-26T19:46:50.128Z,14.30
2017-11-26T19:49:18.516Z,19.83
2017-11-26T19:51:46.926Z,15.43
2017-11-26T19:54:15.367Z,14.27
2017-11-26T19:56:43.708Z,15.05
2017-11-26T19:59:12.093Z,16.50
2017-11-26T20:01:40.493Z,24.52
2017-11-26T20:04:08.846Z,15.70
2017-11-26T20:06:37.235Z,11.05
2017-11-26T20:09:05.592Z,15.73
2017-11-26T20:11:33.976Z,13.23
2017-11-26T20:14:02.348Z,15.02
2017-11-26T20:16:30.689Z,13.45
2017-11-26T20:18:59.084Z,15.68
2017-11-26T20:21:27.434Z,12.37
2017-11-26T20:23:55.797Z,14.70
2017-11-26T20:26:24.237Z,12.50
2017-11-26T20:28:53.702Z,12.95
2017-11-26T20:31:22.521Z,14.02
2017-11-26T20:33:53.660Z,13.95
2017-11-26T20:36:22.018Z,16.33
2017-11-26T20:38:51.182Z,12.30
2017-11-26T20:41:19.680Z,13.43
2017-11-26T20:43:48.155Z,13.77
2017-11-26T20:46:16.605Z,14.93
2017-11-26T20:48:44.949Z,13.15
2017-11-26T20:51:13.354Z,13.60
2017-11-26T20:53:41.720Z,13.60
2017-11-26T20:56:10.071Z,15.40
2017-11-26T20:58:40.764Z,13.23
2017-11-26T21:01:09.117Z,12.93
2017-11-26T21:03:37.464Z,14.52
2017-11-26T21:06:05.820Z,12.70
2017-11-26T21:08:34.397Z,14.48
2017-11-26T21:11:02.792Z,15.05
2017-11-26T21:13:31.153Z,14.25
2017-11-26T21:15:59.504Z,14.65
2017-11-26T21:18:27.858Z,12.52
2017-11-26T21:20:56.248Z,14.93
2017-11-26T21:23:24.604Z,17.12
2017-11-26T21:25:52.959Z,18.25
2017-11-26T21:28:21.313Z,16.10
2017-11-26T21:30:49.735Z,14.98
2017-11-26T21:33:18.225Z,13.95
2017-11-26T21:35:46.575Z,15.77
2017-11-26T21:38:14.929Z,15.35
2017-11-26T21:40:43.275Z,17.27
2017-11-26T21:43:11.633Z,13.85
2017-11-26T21:45:40.104Z,14.93
2017-11-26T21:48:08.458Z,13.75
2017-11-26T21:50:36.811Z,14.10
2017-11-26T21:53:05.164Z,13.52
2017-11-26T21:55:33.521Z,14.13
2017-11-26T21:58:02.004Z,16.85
2017-11-26T22:00:30.411Z,15.07
2017-11-26T22:02:58.717Z,15.35
2017-11-26T22:05:27.064Z,15.07
2017-11-26T22:07:55.416Z,14.30
2017-11-26T22:10:23.795Z,16.25
2017-11-26T22:12:52.150Z,15.38
2017-11-26T22:15:20.508Z,14.85
2017-11-26T22:17:48.952Z,14.60
2017-11-26T22:20:17.527Z,17.15
2017-11-26T22:22:46.058Z,14.90
2017-11-26T22:25:14.619Z,16.23
2017-11-26T22:27:43.103Z,17.05
2017-11-26T22:30:11.584Z,14.90
2017-11-26T22:32:39.992Z,13.95
2017-11-26T22:35:08.372Z,14.48
2017-11-26T22:37:36.996Z,12.90
2017-11-26T22:40:05.341Z,14.32
2017-11-26T22:42:33.703Z,15.50
2017-11-26T22:45:02.049Z,14.77
2017-11-26T22:47:30.404Z,13.62
2017-11-26T22:49:58.756Z,11.50
2017-11-26T22:52:27.108Z,13.90
2017-11-26T22:54:55.462Z,12.63
2017-11-26T22:57:23.811Z,13.00
2017-11-26T22:59:52.166Z,11.88
2017-11-26T23:02:21.431Z,13.25
2017-11-26T23:04:49.784Z,12.50
2017-11-26T23:07:18.133Z,13.80
2017-11-26T23:09:46.483Z,14.40
2017-11-26T23:12:14.839Z,15.60
2017-11-26T23:14:43.187Z,13.50
2017-11-26T23:17:11.564Z,13.60
2017-11-26T23:19:39.908Z,13.10
2017-11-26T23:22:08.256Z,14.43
2017-11-26T23:24:36.600Z,16.00
2017-11-26T23:27:04.969Z,16.15
2017-11-26T23:29:33.323Z,14.30
2017-11-26T23:32:01.692Z,15.13
2017-11-26T23:34:30.040Z,16.20
2017-11-26T23:36:58.388Z,15.45
2017-11-26T23:39:26.748Z,11.57
2017-11-26T23:41:55.125Z,11.63
2017-11-26T23:44:23.472Z,13.98
2017-11-26T23:46:51.828Z,12.85
2017-11-26T23:49:20.205Z,12.10
2017-11-26T23:51:48.556Z,13.40
2017-11-26T23:54:16.981Z,12.60
2017-11-26T23:56:45.331Z,12.25
2017-11-26T23:59:14.264Z,12.20
